sensor_id;sensor_type;location;lat;lon;timestamp;P1;durP1;ratioP1;P2;durP2;ratioP2
71162;SDS011;58858;50.948;6.566;2022-08-19T00:03:45;9.38;;;8.45;;
71162;SDS011;58858;50.948;6.566;2022-08-19T00:13:47;10.43;;;9.40;;
71162;SDS011;58858;50.948;6.566;2022-08-19T00:23:48;14.18;;;11.73;;
71162;SDS011;58858;50.948;6.566;2022-08-19T00:33:50;12.48;;;11.05;;
71162;SDS011;58858;50.948;6.566;2022-08-19T00:43:58;11.32;;;9.45;;
71162;SDS011;58858;50.948;6.566;2022-08-19T00:54:02;12.73;;;11.32;;
71162;SDS011;58858;50.948;6.566;2022-08-19T01:04:03;10.70;;;9.60;;
71162;SDS011;58858;50.948;6.566;2022-08-19T01:14:05;13.77;;;9.32;;
71162;SDS011;58858;50.948;6.566;2022-08-19T01:24:07;12.77;;;10.02;;
71162;SDS011;58858;50.948;6.566;2022-08-19T01:34:08;12.68;;;10.65;;
71162;SDS011;58858;50.948;6.566;2022-08-19T01:44:10;12.20;;;10.93;;
71162;SDS011;58858;50.948;6.566;2022-08-19T01:54:12;13.13;;;11.80;;
71162;SDS011;58858;50.948;6.566;2022-08-19T02:04:16;13.35;;;11.43;;
71162;SDS011;58858;50.948;6.566;2022-08-19T02:14:17;14.55;;;11.40;;
71162;SDS011;58858;50.948;6.566;2022-08-19T02:24:18;14.38;;;12.30;;
71162;SDS011;58858;50.948;6.566;2022-08-19T02:34:19;19.00;;;13.93;;
71162;SDS011;58858;50.948;6.566;2022-08-19T02:44:20;14.95;;;13.10;;
71162;SDS011;58858;50.948;6.566;2022-08-19T02:54:21;20.42;;;14.88;;
71162;SDS011;58858;50.948;6.566;2022-08-19T03:04:22;22.15;;;18.05;;
71162;SDS011;58858;50.948;6.566;2022-08-19T03:14:24;22.48;;;18.02;;
71162;SDS011;58858;50.948;6.566;2022-08-19T03:24:25;19.27;;;16.92;;
71162;SDS011;58858;50.948;6.566;2022-08-19T03:34:28;22.85;;;19.00;;
71162;SDS011;58858;50.948;6.566;2022-08-19T03:44:30;40.83;;;33.35;;
71162;SDS011;58858;50.948;6.566;2022-08-19T03:54:33;39.67;;;33.72;;
71162;SDS011;58858;50.948;6.566;2022-08-19T04:04:37;34.50;;;30.73;;
71162;SDS011;58858;50.948;6.566;2022-08-19T04:14:39;40.97;;;33.45;;
71162;SDS011;58858;50.948;6.566;2022-08-19T04:24:40;33.17;;;29.42;;
71162;SDS011;58858;50.948;6.566;2022-08-19T04:34:41;33.53;;;29.92;;
71162;SDS011;58858;50.948;6.566;2022-08-19T04:44:43;39.85;;;33.47;;
71162;SDS011;58858;50.948;6.566;2022-08-19T04:54:44;40.97;;;33.67;;
71162;SDS011;58858;50.948;6.566;2022-08-19T05:04:45;43.22;;;35.97;;
71162;SDS011;58858;50.948;6.566;2022-08-19T05:14:46;46.22;;;36.85;;
71162;SDS011;58858;50.948;6.566;2022-08-19T05:24:47;49.00;;;39.13;;
71162;SDS011;58858;50.948;6.566;2022-08-19T05:34:49;47.30;;;37.95;;
71162;SDS011;58858;50.948;6.566;2022-08-19T05:44:50;51.67;;;40.88;;
71162;SDS011;58858;50.948;6.566;2022-08-19T05:54:52;53.03;;;39.72;;
71162;SDS011;58858;50.948;6.566;2022-08-19T06:04:55;50.67;;;39.80;;
71162;SDS011;58858;50.948;6.566;2022-08-19T06:14:56;50.25;;;40.10;;
71162;SDS011;58858;50.948;6.566;2022-08-19T06:24:57;51.53;;;37.50;;
71162;SDS011;58858;50.948;6.566;2022-08-19T06:34:58;45.40;;;33.67;;
71162;SDS011;58858;50.948;6.566;2022-08-19T06:44:59;49.05;;;38.33;;
71162;SDS011;58858;50.948;6.566;2022-08-19T06:55:03;53.95;;;41.55;;
71162;SDS011;58858;50.948;6.566;2022-08-19T07:05:05;66.32;;;46.40;;
71162;SDS011;58858;50.948;6.566;2022-08-19T07:15:07;69.55;;;51.85;;
71162;SDS011;58858;50.948;6.566;2022-08-19T07:25:11;63.03;;;48.27;;
71162;SDS011;58858;50.948;6.566;2022-08-19T07:35:13;72.78;;;49.45;;
71162;SDS011;58858;50.948;6.566;2022-08-19T07:45:14;65.22;;;48.50;;
71162;SDS011;58858;50.948;6.566;2022-08-19T07:55:21;63.55;;;50.28;;
71162;SDS011;58858;50.948;6.566;2022-08-19T08:05:26;48.35;;;40.97;;
71162;SDS011;58858;50.948;6.566;2022-08-19T08:15:46;49.53;;;39.63;;
71162;SDS011;58858;50.948;6.566;2022-08-19T08:25:47;39.85;;;32.33;;
71162;SDS011;58858;50.948;6.566;2022-08-19T08:35:49;32.45;;;27.02;;
71162;SDS011;58858;50.948;6.566;2022-08-19T08:45:59;28.23;;;23.42;;
71162;SDS011;58858;50.948;6.566;2022-08-19T08:56:19;25.92;;;19.63;;
71162;SDS011;58858;50.948;6.566;2022-08-19T09:06:37;20.30;;;16.85;;
71162;SDS011;58858;50.948;6.566;2022-08-19T09:16:44;22.90;;;19.40;;
71162;SDS011;58858;50.948;6.566;2022-08-19T09:26:45;29.58;;;26.48;;
71162;SDS011;58858;50.948;6.566;2022-08-19T09:36:46;32.08;;;26.73;;
71162;SDS011;58858;50.948;6.566;2022-08-19T09:46:49;24.40;;;21.90;;
71162;SDS011;58858;50.948;6.566;2022-08-19T09:56:52;20.95;;;18.50;;
71162;SDS011;58858;50.948;6.566;2022-08-19T10:06:55;20.92;;;18.35;;
71162;SDS011;58858;50.948;6.566;2022-08-19T10:16:56;20.10;;;17.85;;
71162;SDS011;58858;50.948;6.566;2022-08-19T10:26:57;19.02;;;14.93;;
71162;SDS011;58858;50.948;6.566;2022-08-19T10:36:59;16.52;;;13.52;;
71162;SDS011;58858;50.948;6.566;2022-08-19T10:47:01;17.02;;;15.32;;
71162;SDS011;58858;50.948;6.566;2022-08-19T10:57:03;11.73;;;10.38;;
71162;SDS011;58858;50.948;6.566;2022-08-19T11:07:06;17.00;;;12.52;;
71162;SDS011;58858;50.948;6.566;2022-08-19T11:17:08;21.05;;;16.63;;
71162;SDS011;58858;50.948;6.566;2022-08-19T11:27:09;18.52;;;15.60;;
71162;SDS011;58858;50.948;6.566;2022-08-19T11:37:11;18.83;;;15.27;;
71162;SDS011;58858;50.948;6.566;2022-08-19T11:47:12;17.95;;;14.82;;
71162;SDS011;58858;50.948;6.566;2022-08-19T11:57:14;13.73;;;12.32;;
71162;SDS011;58858;50.948;6.566;2022-08-19T12:07:17;12.63;;;11.33;;
71162;SDS011;58858;50.948;6.566;2022-08-19T12:17:18;19.35;;;13.43;;
71162;SDS011;58858;50.948;6.566;2022-08-19T12:27:20;15.32;;;12.30;;
71162;SDS011;58858;50.948;6.566;2022-08-19T12:37:21;17.98;;;12.82;;
71162;SDS011;58858;50.948;6.566;2022-08-19T12:47:22;13.65;;;9.98;;
71162;SDS011;58858;50.948;6.566;2022-08-19T12:57:24;16.33;;;12.15;;
71162;SDS011;58858;50.948;6.566;2022-08-19T13:17:28;12.93;;;10.68;;
71162;SDS011;58858;50.948;6.566;2022-08-19T13:27:29;14.23;;;10.88;;
71162;SDS011;58858;50.948;6.566;2022-08-19T13:37:30;14.05;;;6.57;;
71162;SDS011;58858;50.948;6.566;2022-08-19T13:47:52;9.70;;;6.68;;
71162;SDS011;58858;50.948;6.566;2022-08-19T13:57:55;7.53;;;4.80;;
71162;SDS011;58858;50.948;6.566;2022-08-19T14:07:58;9.15;;;4.18;;
71162;SDS011;58858;50.948;6.566;2022-08-19T14:18:00;5.00;;;4.50;;
71162;SDS011;58858;50.948;6.566;2022-08-19T14:28:01;6.30;;;3.15;;
71162;SDS011;58858;50.948;6.566;2022-08-19T14:38:03;5.32;;;2.95;;
71162;SDS011;58858;50.948;6.566;2022-08-19T14:48:06;6.63;;;2.85;;
71162;SDS011;58858;50.948;6.566;2022-08-19T14:58:09;7.37;;;3.23;;
71162;SDS011;58858;50.948;6.566;2022-08-19T15:08:10;6.88;;;3.08;;
71162;SDS011;58858;50.948;6.566;2022-08-19T15:18:11;5.95;;;3.42;;
71162;SDS011;58858;50.948;6.566;2022-08-19T15:28:13;3.85;;;1.70;;
71162;SDS011;58858;50.948;6.566;2022-08-19T15:38:16;2.83;;;2.00;;
71162;SDS011;58858;50.948;6.566;2022-08-19T15:48:21;6.45;;;2.38;;
71162;SDS011;58858;50.948;6.566;2022-08-19T15:58:22;3.15;;;1.77;;
71162;SDS011;58858;50.948;6.566;2022-08-19T16:08:42;3.95;;;2.20;;
71162;SDS011;58858;50.948;6.566;2022-08-19T16:18:45;7.85;;;2.30;;
71162;SDS011;58858;50.948;6.566;2022-08-19T16:28:46;6.55;;;2.40;;
71162;SDS011;58858;50.948;6.566;2022-08-19T16:38:48;3.47;;;2.22;;
71162;SDS011;58858;50.948;6.566;2022-08-19T16:48:50;7.15;;;2.63;;
71162;SDS011;58858;50.948;6.566;2022-08-19T16:58:51;9.40;;;5.55;;
71162;SDS011;58858;50.948;6.566;2022-08-19T17:08:54;2.10;;;1.77;;
71162;SDS011;58858;50.948;6.566;2022-08-19T17:18:59;5.13;;;2.45;;
71162;SDS011;58858;50.948;6.566;2022-08-19T17:29:02;26.60;;;3.07;;
71162;SDS011;58858;50.948;6.566;2022-08-19T17:39:04;4.07;;;2.05;;
71162;SDS011;58858;50.948;6.566;2022-08-19T17:49:05;3.65;;;2.08;;
71162;SDS011;58858;50.948;6.566;2022-08-19T17:59:07;3.47;;;2.05;;
71162;SDS011;58858;50.948;6.566;2022-08-19T18:09:08;4.00;;;2.03;;
71162;SDS011;58858;50.948;6.566;2022-08-19T18:19:09;2.88;;;1.88;;
71162;SDS011;58858;50.948;6.566;2022-08-19T18:29:11;4.88;;;2.80;;
71162;SDS011;58858;50.948;6.566;2022-08-19T18:39:13;7.10;;;3.80;;
71162;SDS011;58858;50.948;6.566;2022-08-19T18:49:32;3.47;;;3.10;;
71162;SDS011;58858;50.948;6.566;2022-08-19T18:59:34;4.72;;;3.47;;
71162;SDS011;58858;50.948;6.566;2022-08-19T19:09:35;3.13;;;2.60;;
71162;SDS011;58858;50.948;6.566;2022-08-19T19:19:37;3.20;;;2.90;;
71162;SDS011;58858;50.948;6.566;2022-08-19T19:29:42;2.97;;;2.55;;
71162;SDS011;58858;50.948;6.566;2022-08-19T19:39:43;7.05;;;2.70;;
71162;SDS011;58858;50.948;6.566;2022-08-19T19:49:45;14.52;;;2.65;;
71162;SDS011;58858;50.948;6.566;2022-08-19T19:59:50;4.32;;;2.60;;
71162;SDS011;58858;50.948;6.566;2022-08-19T20:09:51;5.05;;;3.47;;
71162;SDS011;58858;50.948;6.566;2022-08-19T20:19:52;3.50;;;2.33;;
71162;SDS011;58858;50.948;6.566;2022-08-19T20:29:56;5.60;;;2.60;;
71162;SDS011;58858;50.948;6.566;2022-08-19T20:39:57;3.78;;;2.25;;
71162;SDS011;58858;50.948;6.566;2022-08-19T20:49:58;5.75;;;4.18;;
71162;SDS011;58858;50.948;6.566;2022-08-19T20:59:59;4.07;;;3.03;;
71162;SDS011;58858;50.948;6.566;2022-08-19T21:10:00;8.00;;;5.63;;
71162;SDS011;58858;50.948;6.566;2022-08-19T21:20:02;4.68;;;3.47;;
71162;SDS011;58858;50.948;6.566;2022-08-19T21:30:06;6.95;;;4.05;;
71162;SDS011;58858;50.948;6.566;2022-08-19T21:40:08;6.25;;;3.95;;
71162;SDS011;58858;50.948;6.566;2022-08-19T21:50:10;6.57;;;4.40;;
71162;SDS011;58858;50.948;6.566;2022-08-19T22:00:14;5.63;;;3.85;;
71162;SDS011;58858;50.948;6.566;2022-08-19T22:10:17;4.35;;;3.63;;
71162;SDS011;58858;50.948;6.566;2022-08-19T22:20:21;5.45;;;4.15;;
71162;SDS011;58858;50.948;6.566;2022-08-19T22:30:23;3.85;;;3.10;;
71162;SDS011;58858;50.948;6.566;2022-08-19T22:40:27;5.88;;;3.47;;
71162;SDS011;58858;50.948;6.566;2022-08-19T22:50:29;6.35;;;4.32;;
71162;SDS011;58858;50.948;6.566;2022-08-19T23:00:30;4.70;;;3.60;;
71162;SDS011;58858;50.948;6.566;2022-08-19T23:10:32;6.75;;;3.85;;
71162;SDS011;58858;50.948;6.566;2022-08-19T23:20:34;7.05;;;4.32;;
71162;SDS011;58858;50.948;6.566;2022-08-19T23:40:40;7.60;;;4.10;;
71162;SDS011;58858;50.948;6.566;2022-08-19T23:50:42;5.03;;;3.08;;
